Hauptseite
METAR-TAF:

METAR-TAF

Flughäfen :

Flughafen Cần Thơ

Cần Thơ, Vietnam

Breite: 10-05-07N, Länge: 105-42-43E, Höhe: 3 m

Beobachtung

Neuester Wetterbericht von vor 38 Minuten, um 18:30 UTC
Wind 2 kt aus unterschiedlichen Richtungen
Temperatur 27°C
Luftfeuchtigkeit 100%
Luftdruck 1008 hPa
Sichtweite: 8000 m
Leicht bewölkt in der Höhe von 1500 ft
Durchbrochene Bewölkung in der Höhe von 5000 ft

METAR: VVCT 181830Z VRB02KT 8000 FEW015 BKN050 27/27 Q1008 NOSIG

Zeit: 02:08 (19:08 UTC)

Prognose

Neuester Wetterbericht von vor 2 Stunden und 8 Minuten, um 17:00 UTC
Gültige Prognose vom 18 um 18 UTC bis 19 um 18 UTC
Wind 3 kt aus unterschiedlichen Richtungen
Sichtweite 10 km oder mehr
Aufgelockert bewölkt in der Höhe von 1500 ft
Aufgelockert bewölkt in der Höhe von 5000 ft
Übergehend zu
vom 19 um 05 UTC bis 19 um 06 UTC
Wind 10 kt aus West

TAF: VVCT 181700Z 1818/1918 VRB03KT 9999 SCT015 SCT050 BECMG 1905/1906 26010KT

Wetterbeobachtungen und Prognosen von mehr als 4000 Flughäfen (METAR und TAF Bericht).

Die verfügbaren Stationen werden durch gelbe und rote Markierungen auf der Karte dargestellt.

Führen Sie die Maus auf sie, um den Namen der Station zu sehen.

Darauf klicken, um die Beobachtung von Wetterbeobachtungen und Prognosen zu sehen.

Um die Karte zu ändern : klicken Sie auf den grünen Tasten mit einem schwarzen Kreuz Zum Vergrößern, auf den grünen Button mit einem Gedankenstrich zu verkleinern, oder auf die grünen Pfeile für benachbarte Karten.


METAR-TAF: